createdAt,value
2022-12-19T00:03:36.447Z,-8.13
2022-12-19T00:08:19.899Z,-8.22
2022-12-19T00:13:02.875Z,-8.24
2022-12-19T00:17:45.834Z,-8.32
2022-12-19T00:22:28.808Z,-8.36
2022-12-19T00:27:11.818Z,-8.36
2022-12-19T00:31:54.841Z,-8.39
2022-12-19T00:36:37.934Z,-8.38
2022-12-19T00:41:20.894Z,-8.42
2022-12-19T00:46:03.944Z,-8.43
2022-12-19T00:50:47.117Z,-8.46
2022-12-19T00:55:30.719Z,-8.49
2022-12-19T01:00:13.630Z,-8.54
2022-12-19T01:04:56.571Z,-8.49
2022-12-19T01:09:39.511Z,-8.45
2022-12-19T01:14:23.134Z,-8.41
2022-12-19T01:19:06.381Z,-8.33
2022-12-19T01:23:50.306Z,-8.37
2022-12-19T01:28:33.274Z,-8.41
2022-12-19T01:33:16.212Z,-8.39
2022-12-19T01:38:06.595Z,-8.39
2022-12-19T01:42:53.855Z,-8.37
2022-12-19T01:47:36.757Z,-8.4
2022-12-19T01:52:20.784Z,-8.42
2022-12-19T01:57:06.832Z,-8.42
2022-12-19T02:01:51.430Z,-8.43
2022-12-19T02:06:35.427Z,-8.44
2022-12-19T02:11:18.486Z,-8.36
2022-12-19T02:16:01.485Z,-8.3
2022-12-19T02:20:45.611Z,-8.27
2022-12-19T02:25:28.587Z,-8.27
2022-12-19T02:30:11.635Z,-8.26
2022-12-19T02:34:54.571Z,-8.25
2022-12-19T02:39:37.549Z,-8.28
2022-12-19T02:44:20.512Z,-8.27
2022-12-19T02:49:03.465Z,-8.24
2022-12-19T02:53:46.407Z,-8.22
2022-12-19T02:58:29.417Z,-8.21
2022-12-19T03:03:12.520Z,-8.14
2022-12-19T03:07:55.782Z,-8.09
2022-12-19T03:12:38.755Z,-8.07
2022-12-19T03:17:21.737Z,-8.06
2022-12-19T03:22:04.757Z,-8.02
2022-12-19T03:26:47.707Z,-8.01
2022-12-19T03:31:30.692Z,-7.93
2022-12-19T03:36:13.704Z,-7.9
2022-12-19T03:40:56.640Z,-7.84
2022-12-19T03:45:39.650Z,-7.82
2022-12-19T03:50:22.947Z,-7.72
2022-12-19T03:55:07.086Z,-7.66
2022-12-19T03:59:50.019Z,-7.62
2022-12-19T04:04:32.968Z,-7.61
2022-12-19T04:09:20.808Z,-7.63
2022-12-19T04:14:06.540Z,-7.58
2022-12-19T04:18:49.538Z,-7.54
2022-12-19T04:23:32.578Z,-7.47
2022-12-19T04:28:15.589Z,-7.4
2022-12-19T04:32:58.638Z,-7.36
2022-12-19T04:37:42.783Z,-7.33
2022-12-19T04:42:26.083Z,-7.26
2022-12-19T04:47:09.079Z,-7.19
2022-12-19T04:51:52.084Z,-7.12
2022-12-19T04:56:36.309Z,-7.06
2022-12-19T05:01:19.601Z,-7.1
2022-12-19T05:06:02.918Z,-7.12
2022-12-19T05:10:45.903Z,-7.17
2022-12-19T05:15:29.330Z,-7.21
2022-12-19T05:20:12.323Z,-7.21
2022-12-19T05:24:55.273Z,-7.23
2022-12-19T05:29:38.296Z,-7.18
2022-12-19T05:34:21.271Z,-7.15
2022-12-19T05:39:04.234Z,-7.09
2022-12-19T05:43:47.188Z,-7.04
2022-12-19T05:48:30.181Z,-6.97
2022-12-19T05:53:13.161Z,-6.91
2022-12-19T05:57:56.759Z,-6.83
2022-12-19T06:02:39.829Z,-6.65
2022-12-19T06:07:23.384Z,-6.36
2022-12-19T06:12:06.379Z,-6.15
2022-12-19T06:16:49.761Z,-6.09
2022-12-19T06:21:32.744Z,-5.97
2022-12-19T06:26:19.316Z,-5.96
2022-12-19T06:31:02.908Z,-5.88
2022-12-19T06:35:45.996Z,-5.8
2022-12-19T06:40:29.035Z,-5.49
2022-12-19T06:45:12.075Z,-5.34
2022-12-19T06:49:55.069Z,-5.14
2022-12-19T06:54:38.141Z,-5.05
2022-12-19T06:59:21.119Z,-5.01
2022-12-19T07:04:04.126Z,-4.96
2022-12-19T07:08:47.155Z,-4.88
2022-12-19T07:13:30.243Z,-4.89
2022-12-19T07:18:13.348Z,-4.78
2022-12-19T07:22:56.343Z,-4.81
2022-12-19T07:27:39.393Z,-4.71
2022-12-19T07:32:22.360Z,-4.68
2022-12-19T07:37:06.379Z,-4.54
2022-12-19T07:41:49.531Z,-4.43
2022-12-19T07:46:32.524Z,-4.37
2022-12-19T07:51:16.401Z,-4.33
2022-12-19T07:55:59.388Z,-4.26
2022-12-19T08:00:42.612Z,-4.07
2022-12-19T08:05:25.864Z,-3.88
2022-12-19T08:10:08.966Z,-3.74
2022-12-19T08:14:57.066Z,-3.52
2022-12-19T08:19:42.407Z,-3.37
2022-12-19T08:24:25.384Z,-3.09
2022-12-19T08:29:08.813Z,-2.73
2022-12-19T08:33:54.172Z,-2.48
2022-12-19T08:38:37.461Z,-2.35
2022-12-19T08:43:23.450Z,-2.26
2022-12-19T08:48:06.440Z,-2.28
2022-12-19T08:52:50.505Z,-2.22
2022-12-19T08:57:33.834Z,-2.06
2022-12-19T09:02:16.988Z,-1.75
2022-12-19T09:07:00.691Z,-1.22
2022-12-19T09:11:48.095Z,-0.65
2022-12-19T09:16:31.445Z,-0.12
2022-12-19T09:21:14.719Z,0.86
2022-12-19T09:25:57.889Z,1.46
2022-12-19T09:30:40.953Z,1.56
2022-12-19T09:35:28.506Z,1.99
2022-12-19T09:40:13.116Z,2.45
2022-12-19T09:44:56.158Z,2.36
2022-12-19T09:49:39.838Z,2.89
2022-12-19T09:54:26.868Z,1.97
2022-12-19T09:59:09.899Z,1.34
2022-12-19T10:03:53.003Z,0.39
2022-12-19T10:08:38.096Z,0.16
2022-12-19T10:17:30.261Z,-0.05
2022-12-19T10:22:18.525Z,-0.08
2022-12-19T10:27:02.066Z,0.03
2022-12-19T10:31:45.168Z,0.14
2022-12-19T10:37:12.188Z,0.13
2022-12-19T10:42:20.944Z,0.19
2022-12-19T10:47:04.601Z,0.37
2022-12-19T10:51:48.115Z,0.56
2022-12-19T10:56:37.030Z,0.6
2022-12-19T11:01:21.131Z,0.84
2022-12-19T11:06:05.016Z,1.01
2022-12-19T11:11:02.463Z,1.23
2022-12-19T11:35:24.259Z,1.9
2022-12-19T11:40:19.211Z,1.98
2022-12-19T11:45:02.193Z,1.89
2022-12-19T11:49:45.312Z,1.83
2022-12-19T11:54:31.382Z,1.78
2022-12-19T11:59:14.379Z,1.79
2022-12-19T12:04:02.092Z,1.66
2022-12-19T12:10:10.216Z,1.58
2022-12-19T12:37:45.959Z,1.32
2022-12-19T12:43:10.872Z,1.35
2022-12-19T12:47:54.038Z,1.35
2022-12-19T12:52:37.019Z,1.33
2022-12-19T12:57:23.111Z,1.22
2022-12-19T13:02:11.372Z,1.21
2022-12-19T13:06:55.362Z,1.17
2022-12-19T13:11:38.460Z,1.15
2022-12-19T13:16:21.671Z,1.11
2022-12-19T13:21:04.788Z,1.03
2022-12-19T13:25:48.962Z,0.96
2022-12-19T13:30:32.084Z,0.87
2022-12-19T13:36:47.792Z,0.82
2022-12-19T13:44:55.287Z,0.67
2022-12-19T13:49:38.334Z,0.59
2022-12-19T13:54:21.468Z,0.56
2022-12-19T13:59:04.447Z,0.51
2022-12-19T14:03:49.996Z,0.43
2022-12-19T14:08:33.228Z,0.35
2022-12-19T14:13:40.000Z,0.31
2022-12-19T14:18:58.701Z,0.28
2022-12-19T14:23:43.162Z,0.26
2022-12-19T14:28:29.971Z,0.27
2022-12-19T14:33:41.376Z,0.29
2022-12-19T14:39:44.934Z,0.28
2022-12-19T14:51:09.257Z,0.29
2022-12-19T15:01:08.688Z,0.24
2022-12-19T15:06:03.956Z,0.2
2022-12-19T15:12:04.406Z,0.19
2022-12-19T15:19:43.438Z,0.11
2022-12-19T15:24:26.519Z,0.14
2022-12-19T15:29:09.578Z,0.15
2022-12-19T15:39:31.605Z,0.2
2022-12-19T15:44:14.767Z,0.21
2022-12-19T15:48:57.899Z,0.24
2022-12-19T15:53:41.586Z,0.23
2022-12-19T15:58:24.850Z,0.21
2022-12-19T16:03:25.227Z,0.2
2022-12-19T16:08:09.957Z,0.24
2022-12-19T16:12:53.699Z,0.27
2022-12-19T16:17:38.585Z,0.28
2022-12-19T16:22:21.831Z,0.27
2022-12-19T16:27:05.000Z,0.25
2022-12-19T16:31:48.255Z,0.32
2022-12-19T16:36:31.511Z,0.34
2022-12-19T16:41:14.546Z,0.33
2022-12-19T16:46:01.018Z,0.35
2022-12-19T16:50:45.921Z,0.35
2022-12-19T16:55:29.136Z,0.38
2022-12-19T17:00:12.343Z,0.38
2022-12-19T17:04:55.411Z,0.42
2022-12-19T17:09:38.736Z,0.44
2022-12-19T17:14:22.033Z,0.49
2022-12-19T17:19:06.013Z,0.53
2022-12-19T17:23:49.062Z,0.54
2022-12-19T17:28:32.098Z,0.57
2022-12-19T17:33:15.157Z,0.6
2022-12-19T17:37:58.215Z,0.6
2022-12-19T17:42:41.355Z,0.6
2022-12-19T17:47:24.407Z,0.62
2022-12-19T17:52:07.543Z,0.64
2022-12-19T17:56:50.550Z,0.64
2022-12-19T18:01:33.713Z,0.66
2022-12-19T18:06:17.294Z,0.62
2022-12-19T18:11:00.391Z,0.62
2022-12-19T18:15:43.492Z,0.64
2022-12-19T18:20:31.427Z,0.59
2022-12-19T18:25:15.180Z,0.56
2022-12-19T18:29:58.280Z,0.5
2022-12-19T18:34:41.375Z,0.46
2022-12-19T18:39:25.522Z,0.44
2022-12-19T18:44:08.613Z,0.48
2022-12-19T18:48:51.735Z,0.47
2022-12-19T18:53:39.088Z,0.48
2022-12-19T18:58:22.211Z,0.45
2022-12-19T19:03:05.560Z,0.48
2022-12-19T19:07:49.386Z,0.45
2022-12-19T19:12:32.556Z,0.51
2022-12-19T19:17:16.735Z,0.51
2022-12-19T19:22:00.166Z,0.5
2022-12-19T19:26:43.271Z,0.5
2022-12-19T19:31:26.578Z,0.55
2022-12-19T19:41:14.284Z,0.65
2022-12-19T19:45:57.372Z,0.68
2022-12-19T19:50:40.739Z,0.72
2022-12-19T19:55:26.253Z,0.77
2022-12-19T20:00:09.353Z,0.79
2022-12-19T20:04:52.480Z,0.85
2022-12-19T20:09:35.583Z,0.87
2022-12-19T20:14:18.833Z,0.9
2022-12-19T20:19:03.286Z,0.91
2022-12-19T20:23:46.464Z,0.96
2022-12-19T20:28:29.560Z,0.96
2022-12-19T20:33:12.616Z,0.96
2022-12-19T20:37:55.775Z,0.96
2022-12-19T20:42:38.837Z,0.94
2022-12-19T20:47:21.900Z,0.9
2022-12-19T20:52:05.267Z,0.93
2022-12-19T20:56:48.348Z,0.89
2022-12-19T21:01:31.562Z,0.91
2022-12-19T21:06:17.516Z,0.93
2022-12-19T21:11:00.596Z,0.9
2022-12-19T21:15:43.665Z,0.93
2022-12-19T21:20:32.494Z,0.9
2022-12-19T21:25:17.471Z,0.92
2022-12-19T21:30:00.516Z,0.93
2022-12-19T21:34:43.556Z,0.93
2022-12-19T21:39:26.514Z,0.88
2022-12-19T21:44:09.561Z,0.85
2022-12-19T21:48:52.625Z,0.83
2022-12-19T21:53:35.684Z,0.81
2022-12-19T21:58:18.697Z,0.78
2022-12-19T22:03:13.719Z,0.73
2022-12-19T22:07:59.316Z,0.69
2022-12-19T22:12:42.381Z,0.67
2022-12-19T22:17:26.112Z,0.7
2022-12-19T22:22:09.149Z,0.69
2022-12-19T22:26:52.230Z,0.69
2022-12-19T22:31:35.262Z,0.67
2022-12-19T22:36:24.129Z,0.64
2022-12-19T22:41:11.162Z,0.68
2022-12-19T22:45:54.457Z,0.7
2022-12-19T22:50:37.612Z,0.72
2022-12-19T22:55:20.653Z,0.71
2022-12-19T23:00:03.602Z,0.7
2022-12-19T23:04:46.565Z,0.72
2022-12-19T23:09:29.507Z,0.71
2022-12-19T23:14:12.548Z,0.7
2022-12-19T23:18:55.981Z,0.73
2022-12-19T23:23:39.043Z,0.73
2022-12-19T23:28:24.016Z,0.75
2022-12-19T23:33:06.979Z,0.77
2022-12-19T23:37:49.942Z,0.78
2022-12-19T23:42:33.001Z,0.78
2022-12-19T23:47:16.559Z,0.81
2022-12-19T23:51:59.643Z,0.81
2022-12-19T23:56:42.667Z,0.81
